Latest Weather Observations for Wyndham Airport

IDD60801

Issued at 10:31 am CST Saturday 27 August 2016 (issued every 30 minutes, with the page automatically refreshed every 10 minutes)

About weather observations | Map of weather stations | Latest weather observations for NT | Other Formats
Station Details ID: 001006 Name: WYNDHAM AERO Lat: -15.51 Lon: 128.15 Height: 3.8 m
Data from the previous 72 hours. | See also: Recent months at Wyndham Airport
Date/Time
CST
Temp
°C
App
Temp
°C
Dew
Point
°C
Rel
Hum
%
Delta-T
°C
Wind Press
QNH
hPa
Press
MSL
hPa
Rain since
9am
mm
Dir  Spd
km/h
Gust
km/h
Spd
kts
Gust
kts
27/10:30am 29.7 22.1 0.3 15 14.1 ENE 30 43 16 23 1017.0 1017.0 0.0
27/10:00am 28.9 21.9 -0.3 15 13.7 E 26 35 14 19 1017.1 1017.1 0.0
27/09:30am 27.7 19.7 0.5 17 12.9 E 32 41 17 22 1016.8 1016.8 0.0
27/09:00am 26.9 21.8 0.6 18 12.4 ESE 17 28 9 15 1016.4 1016.4 0.0
27/08:30am 23.5 20.6 1.2 23 10.4 SE 6 7 3 4 1016.3 1016.3 0.0
27/08:00am 20.2 16.9 2.5 31 8.2 SE 9 9 5 5 1016.1 1016.1 0.0
27/07:30am 17.3 15.6 1.7 35 7.0 CALM 0 0 0 0 1015.6 1015.6 0.0
27/07:00am 17.0 13.9 1.4 35 6.9 ESE 7 9 4 5 1015.1 1015.1 0.0
27/06:30am 18.0 14.5 1.1 32 7.5 SE 9 11 5 6 1014.7 1014.7 0.0
27/06:00am 17.5 13.5 0.6 32 7.4 ESE 11 15 6 8 1014.3 1014.3 0.0
27/05:30am 19.0 14.9 2.0 32 7.7 E 13 17 7 9 1013.9 1013.9 0.0
27/05:00am 17.8 13.2 1.3 33 7.3 ESE 15 17 8 9 1013.7 1013.7 0.0
27/04:30am 17.1 13.3 1.9 36 6.8 ESE 11 13 6 7 1013.7 1013.7 0.0
27/04:00am 17.1 13.3 1.9 36 6.8 E 11 13 6 7 1013.6 1013.6 0.0
27/03:30am 19.1 16.3 2.0 32 7.8 S 6 7 3 4 1013.5 1013.5 0.0
27/03:00am 18.9 15.8 1.4 31 7.9 ESE 7 13 4 7 1013.5 1013.5 0.0
27/02:30am 20.5 16.0 1.9 29 8.6 ESE 15 15 8 8 1013.6 1013.6 0.0
27/02:00am 20.4 16.8 2.7 31 8.3 E 11 13 6 7 1013.6 1013.6 0.0
27/01:30am 22.3 18.0 3.4 29 9.1 E 15 17 8 9 1013.7 1013.7 0.0
27/01:00am 20.5 16.7 3.7 33 8.0 ESE 13 13 7 7 1013.8 1013.8 0.0
27/12:30am 20.9 16.5 4.5 34 8.0 ESE 17 19 9 10 1014.0 1014.0 0.0
27/12:00am 21.3 16.8 4.4 33 8.2 ESE 17 19 9 10 1014.0 1014.0 0.0
 
Date/Time
CST
Temp
°C
App
Temp
°C
Dew
Point
°C
Rel
Hum
%
Delta-T
°C
Wind Press
QNH
hPa
Press
MSL
hPa
Rain since
9am
mm
Dir  Spd
km/h
Gust
km/h
Spd
kts
Gust
kts
26/11:30pm 21.7 17.0 3.4 30 8.8 ESE 17 22 9 12 1013.9 1013.9 0.0
26/11:00pm 23.4 18.6 4.4 29 9.4 SE 19 20 10 11 1014.2 1014.2 0.0
26/10:30pm 22.9 18.1 2.4 26 9.7 ESE 17 19 9 10 1014.2 1014.2 0.0
26/10:00pm 23.2 18.2 1.5 24 10.1 ESE 17 17 9 9 1014.4 1014.4 0.0
26/09:30pm 25.5 21.4 2.2 22 11.2 E 13 15 7 8 1014.4 1014.4 0.0
26/09:00pm 28.1 23.2 2.3 19 12.7 E 17 22 9 12 1014.1 1014.1 0.0
26/08:30pm 26.5 21.9 1.7 20 11.9 E 15 19 8 10 1013.7 1013.7 0.0
26/08:00pm 26.8 22.3 2.0 20 12.0 SE 15 17 8 9 1013.1 1013.1 0.0
26/07:30pm 26.4 21.7 0.9 19 12.1 ESE 15 17 8 9 1012.6 1012.6 0.0
26/07:00pm 28.1 23.8 0.8 17 13.0 ESE 13 15 7 8 1012.1 1012.1 0.0
26/06:30pm 32.0 28.5 1.2 14 15.2 ESE 9 17 5 9 1011.7 1011.7 0.0
26/06:00pm 33.2 29.7 1.1 13 15.9 S 9 15 5 8 1011.4 1011.4 0.0
26/05:30pm 33.8 29.4 0.5 12 16.5 ESE 13 20 7 11 1011.2 1011.2 0.0
26/05:00pm 34.2 29.5 0.8 12 16.6 SSE 15 22 8 12 1010.9 1010.9 0.0
26/04:30pm 34.8 29.6 0.0 11 17.2 E 17 28 9 15 1010.8 1010.8 0.0
26/04:00pm 34.1 29.8 0.7 12 16.6 E 13 22 7 12 1010.9 1010.9 0.0
26/03:30pm 34.3 28.8 0.8 12 16.7 SE 19 30 10 16 1010.9 1010.9 0.0
26/03:00pm 34.4 29.5 2.0 13 16.5 ESE 17 28 9 15 1011.2 1011.2 0.0
26/02:30pm 33.2 28.5 1.1 13 16.0 ESE 15 30 8 16 1011.9 1011.9 0.0
26/02:00pm 32.6 28.8 1.7 14 15.4 E 11 24 6 13 1012.6 1012.6 0.0
26/01:30pm 31.6 27.7 0.9 14 15.0 ESE 11 20 6 11 1013.2 1013.2 0.0
26/01:00pm 32.5 28.1 2.5 15 15.2 ESE 15 26 8 14 1013.8 1013.8 0.0
26/12:30pm 31.4 26.5 1.7 15 14.7 E 17 28 9 15 1014.2 1014.2 0.0
26/12:00pm 31.1 25.7 2.3 16 14.4 ESE 20 30 11 16 1014.7 1014.7 0.0
26/11:30am 30.2 24.7 1.6 16 14.0 E 20 28 11 15 1015.1 1015.1 0.0
26/11:00am 30.3 25.0 1.7 16 14.1 ESE 19 28 10 15 1015.5 1015.5 0.0
26/10:30am 29.2 23.7 1.7 17 13.4 E 20 30 11 16 1015.8 1015.8 0.0
26/10:00am 28.8 23.5 2.1 18 13.1 ESE 19 26 10 14 1015.9 1015.9 0.0
26/09:30am 27.5 22.6 1.8 19 12.4 ESE 17 24 9 13 1015.9 1015.9 0.0
26/09:00am 26.0 22.8 3.3 23 11.2 ESE 9 13 5 7 1015.8 1015.8 0.0
26/08:30am 23.4 21.0 4.4 29 9.4 E 6 9 3 5 1015.6 1015.6 0.0
26/08:00am 19.2 17.0 6.3 43 6.4 E 7 7 4 4 1015.3 1015.3 0.0
26/07:30am 16.2 13.9 5.5 49 5.1 ENE 7 9 4 5 1014.7 1014.7 0.0
26/07:00am 14.5 12.1 4.5 51 4.6 ENE 6 9 3 5 1014.2 1014.2 0.0
26/06:30am 14.7 13.4 4.1 49 4.9 CALM 0 0 0 0 1013.7 1013.7 0.0
26/06:00am 15.6 14.4 4.6 48 5.1 CALM 0 0 0 0 1013.4 1013.4 0.0
26/05:30am 17.3 16.2 5.3 45 5.8 CALM 0 6 0 3 1013.0 1013.0 0.0
26/05:00am 17.5 15.8 6.1 47 5.6 NE 4 7 2 4 1012.7 1012.7 0.0
26/04:30am 19.5 18.5 7.3 45 6.2 NNE 2 7 1 4 1012.6 1012.6 0.0
26/04:00am 20.5 17.2 9.4 49 5.9 SSW 17 20 9 11 1012.4 1012.4 0.0
26/03:30am 19.3 17.6 10.0 55 5.0 SSW 9 13 5 7 1012.3 1012.3 0.0
26/03:00am 17.9 15.2 2.6 36 7.0 NNW 6 7 3 4 1012.2 1012.2 0.0
26/02:30am 19.0 15.1 3.2 35 7.4 NW 13 15 7 8 1012.2 1012.2 0.0
26/02:00am 20.3 17.8 6.6 41 6.9 WNW 9 15 5 8 1012.2 1012.2 0.0
26/01:30am 20.1 17.4 2.5 31 8.2 WNW 6 7 3 4 1012.3 1012.3 0.0
26/01:00am 20.1 18.1 2.5 31 8.2 NNE 2 7 1 4 1012.3 1012.3 0.0
26/12:30am 20.0 18.1 2.8 32 8.0 N 2 7 1 4 1012.5 1012.5 0.0
26/12:00am 21.3 17.5 4.0 32 8.3 E 13 17 7 9 1012.6 1012.6 0.0
 
Date/Time
CST
Temp
°C
App
Temp
°C
Dew
Point
°C
Rel
Hum
%
Delta-T
°C
Wind Press
QNH
hPa
Press
MSL
hPa
Rain since
9am
mm
Dir  Spd
km/h
Gust
km/h
Spd
kts
Gust
kts
25/11:30pm 21.5 17.2 3.2 30 8.7 E 15 17 8 9 1012.5 1012.5 0.0
25/11:00pm 22.5 17.8 3.1 28 9.3 ESE 17 19 9 10 1012.3 1012.3 0.0
25/10:30pm 23.8 18.7 0.8 22 10.6 E 17 19 9 10 1012.5 1012.5 0.0
25/10:00pm 26.2 21.1 0.8 19 12.0 E 17 20 9 11 1012.5 1012.5 0.0
25/09:30pm 22.9 18.6 1.3 24 10.0 ENE 13 17 7 9 1012.4 1012.4 0.0
25/09:00pm 23.8 20.7 1.4 23 10.5 E 7 11 4 6 1012.1 1012.1 0.0
25/08:30pm 24.7 23.1 2.2 23 10.8 CALM 0 0 0 0 1011.6 1011.6 0.0
25/08:00pm 25.6 23.8 1.0 20 11.6 CALM 0 6 0 3 1011.1 1011.1 0.0
25/07:30pm 26.6 24.3 0.4 18 12.3 SW 2 7 1 4 1010.8 1010.8 0.0
25/07:00pm 29.8 26.5 0.4 15 14.1 WSW 7 13 4 7 1010.4 1010.4 0.0
25/06:30pm 32.1 30.1 0.2 13 15.5 CALM 0 0 0 0 1010.1 1010.1 0.0
25/06:00pm 32.8 30.2 -1.5 11 16.3 NNW 2 7 1 4 1009.9 1009.9 0.0
25/05:30pm 33.1 29.8 -1.3 11 16.4 S 6 13 3 7 1009.8 1009.8 0.0
25/05:00pm 33.6 28.6 -0.9 11 16.6 WSW 15 20 8 11 1009.6 1009.6 0.0
25/04:30pm 33.7 29.1 -0.8 11 16.7 WSW 13 24 7 13 1009.6 1009.6 0.0
25/04:00pm 34.4 30.1 0.9 12 16.7 SSW 13 20 7 11 1009.6 1009.6 0.0
25/03:30pm 34.6 30.3 1.1 12 16.8 ESE 13 39 7 21 1009.7 1009.7 0.0
25/03:00pm 33.6 30.1 1.4 13 16.1 ENE 9 20 5 11 1010.0 1010.0 0.0
25/02:30pm 33.1 29.0 2.1 14 15.7 ESE 13 24 7 13 1010.4 1010.4 0.0
25/02:00pm 33.2 29.1 2.1 14 15.7 E 13 26 7 14 1011.1 1011.1 0.0
25/01:30pm 32.7 28.3 2.7 15 15.3 ESE 15 30 8 16 1011.5 1011.5 0.0
25/01:00pm 32.5 28.1 2.5 15 15.2 ESE 15 26 8 14 1012.0 1012.0 0.0
25/12:30pm 32.1 27.0 3.1 16 14.8 E 19 28 10 15 1012.5 1012.5 0.0
25/12:00pm 31.2 26.0 3.3 17 14.2 E 20 28 11 15 1013.0 1013.0 0.0
25/11:30am 30.3 24.9 2.5 17 13.9 E 20 39 11 21 1013.3 1013.3 0.0
25/11:00am 29.7 23.5 2.1 17 13.6 E 24 32 13 17 1013.5 1013.5 0.0
25/10:30am 29.5 23.4 2.7 18 13.4 E 24 35 13 19 1013.5 1013.5 0.0
25/10:00am 28.5 23.8 3.4 20 12.6 ESE 17 30 9 16 1013.6 1013.6 0.0
25/09:30am 24.8 22.6 5.1 28 9.9 WSW 6 7 3 4 1013.7 1013.7 0.0
25/09:00am 23.3 22.0 4.3 29 9.4 CALM 0 6 0 3 1013.5 1013.5 0.0
25/08:30am 22.6 20.5 3.7 29 9.2 NNW 4 6 2 3 1013.4 1013.4 0.0
25/08:00am 18.5 15.9 3.2 36 7.1 NNW 6 7 3 4 1012.9 1012.9 0.0
25/07:30am 16.1 13.3 1.8 38 6.3 NNW 6 9 3 5 1012.6 1012.6 0.0
25/07:00am 16.3 13.4 1.6 37 6.5 WNW 6 9 3 5 1011.9 1011.9 0.0
25/06:30am 16.0 13.2 2.1 39 6.2 WNW 6 7 3 4 1011.5 1011.5 0.0
25/06:00am 16.3 13.8 3.7 43 5.8 NNW 6 7 3 4 1011.0 1011.0 0.0
25/05:30am 17.7 15.3 5.3 44 6.0 W 7 7 4 4 1010.6 1010.6 0.0
25/05:00am 16.6 13.8 3.0 40 6.2 SW 7 11 4 6 1010.3 1010.3 0.0
25/04:30am 18.5 17.4 8.5 52 5.2 NE 4 7 2 4 1009.9 1009.9 0.0
25/04:00am 17.2 14.8 4.2 42 6.1 SSW 6 7 3 4 1009.8 1009.8 0.0
25/03:30am 18.9 17.0 6.7 45 6.1 NW 6 9 3 5 1009.7 1009.7 0.0
25/03:00am 17.9 14.4 1.0 32 7.5 ENE 9 15 5 8 1009.7 1009.7 0.0
25/02:30am 17.8 13.7 0.0 30 7.7 E 11 11 6 6 1009.6 1009.6 0.0
25/02:00am 17.2 13.6 0.4 32 7.3 ESE 9 11 5 6 1009.8 1009.8 0.0
25/01:30am 17.0 13.4 0.6 33 7.1 ESE 9 13 5 7 1010.1 1010.1 0.0
25/01:00am 20.3 18.5 1.2 28 8.7 CALM 0 0 0 0 1010.4 1010.4 0.0
25/12:30am 20.2 18.5 1.6 29 8.5 CALM 0 6 0 3 1010.5 1010.5 0.0
25/12:00am 19.1 16.6 -0.8 26 8.6 SW 2 9 1 5 1010.5 1010.5 0.0
 
Date/Time
CST
Temp
°C
App
Temp
°C
Dew
Point
°C
Rel
Hum
%
Delta-T
°C
Wind Press
QNH
hPa
Press
MSL
hPa
Rain since
9am
mm
Dir  Spd
km/h
Gust
km/h
Spd
kts
Gust
kts
24/11:30pm 19.9 16.7 -0.7 25 9.0 SSW 6 13 3 7 1010.5 1010.5 0.0
24/11:00pm 21.3 18.5 -0.6 23 9.7 N 4 7 2 4 1010.5 1010.5 0.0
24/10:30pm 22.3 17.9 0.2 23 10.0 E 13 15 7 8 1010.5 1010.5 0.0
24/10:00pm 19.4 14.9 -0.6 26 8.7 E 13 15 7 8 1010.5 1010.5 0.0
24/09:30pm 23.2 19.1 -0.3 21 10.6 ENE 11 13 6 7 1010.5 1010.5 0.0
24/09:00pm 24.2 20.0 -0.9 19 11.3 ENE 11 13 6 7 1010.4 1010.4 0.0
24/08:30pm 24.4 20.5 -1.4 18 11.5 E 9 11 5 6 1010.2 1010.2 0.0
24/08:00pm 24.9 21.1 -1.0 18 11.7 E 9 11 5 6 1009.9 1009.9 0.0
24/07:30pm 26.0 22.2 -0.9 17 12.3 E 9 11 5 6 1009.4 1009.4 0.0
24/07:00pm 27.8 23.6 -1.2 15 13.3 E 11 15 6 8 1009.0 1009.0 0.0
24/06:30pm 29.8 25.1 -1.5 13 14.6 ESE 13 17 7 9 1008.7 1008.7 0.0
24/06:00pm 31.6 27.6 -2.4 11 15.8 SE 9 17 5 9 1008.4 1008.4 0.0
24/05:30pm 32.4 28.8 -1.8 11 16.1 NE 7 11 4 6 1008.1 1008.1 0.0
24/05:00pm 32.5 30.1 -0.5 12 15.9 N 2 9 1 5 1007.9 1007.9 0.0
24/04:30pm 32.4 28.6 -0.6 12 15.9 S 9 19 5 10 1007.8 1007.8 0.0
24/04:00pm 32.4 27.7 -1.8 11 16.1 SSW 13 19 7 10 1007.9 1007.9 0.0
24/03:30pm 32.3 28.6 -3.2 10 16.3 SSW 7 13 4 7 1008.1 1008.1 0.0
24/03:00pm 32.1 27.4 -2.0 11 16.0 E 13 24 7 13 1008.4 1008.4 0.0
24/02:30pm 31.7 26.4 -3.6 10 16.1 SSE 15 22 8 12 1009.1 1009.1 0.0
24/02:00pm 32.0 27.6 -2.1 11 15.9 S 11 20 6 11 1009.5 1009.5 0.0
24/01:30pm 31.5 27.2 -1.3 12 15.5 ESE 11 17 6 9 1010.0 1010.0 0.0
24/01:00pm 30.9 26.4 -3.0 11 15.5 ENE 11 20 6 11 1010.5 1010.5 0.0
24/12:30pm 30.7 25.6 -1.9 12 15.1 SE 15 22 8 12 1011.0 1011.0 0.0

Other Formats:

Comma delimited format used in spreadsheet applications
http://www.bom.gov.au/fwo/IDD60801/IDD60801.95214.axf

JavaScript Object Notation format (JSON) in row-major order
http://www.bom.gov.au/fwo/IDD60801/IDD60801.95214.json